Keene Summit, California
Current Conditions -  °F | °C
As of 7:56 PM on Friday 24 Oct 2014 (Local Time) from KUKI Reporting Station
Overcast Overcast  
Wind Chill: 63°   Ceiling: 2900
Heat Index: 63°   Visibility: 10mi
Dew Point: 53°   Wind: 12mph
Humidity: 70%   Direction: 130°SE
Pressure: 29.85"   Gusts: NA
Location:  39.2991°N, 123.601°W
Report Text: KUKI 250256Z AUTO 13010KT 10SM OVC029 17/12 A2985 RMK AO2 SLP103 T01720117 53003
Loading
Personal Weather Stations






























Interactive Weather Map
Tropical Storm Tracking
New forecast layout! Learn more

10-Day Weather Forecast

Advertisements
Track Severe Weather on mobile